Terminal Aerodrome Forecast
Issued by NWS

Home | Current Version | Previous Version | Text Only | Print | Product List | Glossary On
Versions: 1 2 3 4 5 6 7 8 9 10 11 12
000
FTUS44 KLZK 291130
TAFADF
TAF
KADF 291130Z 2912/3012 20004KT P6SM VCSH BKN050
     FM291800 19005KT P6SM SCT040 BKN100
     FM300100 16004KT P6SM VCTS BKN050CB=

USA.gov is the U.S. government's official web portal to all federal, state and local government web resources and services.